Flight Track Log - Related Links

Times and Time Zones

All times are in EDT time to prevent confusion due to time zone crossing. See the SWA3206 flight status page for this flight to view local times or setup timezone preferences in your user account.

Time Position Orientation Groundspeed Altitude Reporting Facility
EDT Latitude Longitude Course Direction KTS MPH feet Rate Location/Type
Thu 02:03:27 PM 41.8000 -87.7833 258° West 173 199 2,000  Level Chicago TRACON
Thu 02:04:21 PM 41.7667 -87.8500 236° Southwest 233 268 4,000 2,684 Climbing Chicago TRACON
Thu 02:05:21 PM 41.7167 -87.9167 225° Southwest 271 312 7,100 3,308 Climbing Chicago TRACON
Thu 02:06:08 PM 41.7336 -87.9989 285° West 292 336 9,900 2,697 Climbing Chicago Center
Thu 02:07:10 PM 41.7700 -88.0986 296° West 305 351 12,000 2,049 Climbing Chicago Center
Thu 02:08:11 PM 41.7733 -88.2092 272° West 301 346 14,100 2,341 Climbing Chicago Center
Thu 02:09:00 PM 41.6497 -88.6187 258° West  Level Estimated
Thu 02:09:13 PM 41.7694 -88.3250 267° West 313 360 16,800  Level Chicago Center
Thu 02:10:15 PM 41.7408 -88.4806 256° West 362 417 18,300 1,984 Climbing Chicago Center
Thu 02:11:17 PM 41.7042 -88.6142 250° West 385 443 20,900 2,806 Climbing Chicago Center
Thu 02:12:19 PM 41.6619 -88.7428 246° West 382 440 24,100 2,806 Climbing Chicago Center
Thu 02:13:21 PM 41.6264 -88.8700 250° West 372 428 26,700 2,177 Climbing Chicago Center
Thu 02:14:23 PM 41.5978 -88.9994 254° West 367 422 28,600 1,887 Climbing Chicago Center
Thu 02:15:25 PM 41.5717 -89.1681 258° West 389 448 30,600 1,113 Climbing Chicago Center
Thu 02:16:27 PM 41.5486 -89.3158 258° West 406 467 30,900 629 Climbing Chicago Center
Thu 02:17:29 PM 41.5239 -89.4625 257° West 440 506 31,900 1,355 Climbing Chicago Center
Thu 02:18:31 PM 41.4972 -89.6236 258° West 446 513 33,700 2,032 Climbing Chicago Center
Thu 02:19:33 PM 41.4658 -89.8108 257° West 436 502 36,100 1,935 Climbing Chicago Center
Thu 02:20:35 PM 41.4400 -89.9592 257° West 417 480 37,700 919 Climbing Chicago Center
Thu 02:21:37 PM 41.4156 -90.1056 257° West 410 472 38,000 144 Climbing Chicago Center
Thu 02:22:40 PM 41.3894 -90.2514 257° West 409 471 38,000  Level Chicago Center
Thu 02:23:41 PM 41.3647 -90.3983 257° West 409 471 38,000  Level Chicago Center
Thu 02:24:43 PM 41.3331 -90.5758 257° West 412 474 38,000  Level Chicago Center
Thu 02:25:45 PM 41.2981 -90.7208 252° West 411 473 38,000  Level Chicago Center
Thu 02:26:48 PM 41.2633 -90.8622 252° West 403 464 38,000  Level Chicago Center
Thu 02:27:50 PM 41.2381 -91.0064 257° West 401 461 38,000  Level Chicago Center
Thu 02:28:52 PM 41.2125 -91.1508 257° West 402 463 38,000  Level Chicago Center
Thu 02:29:54 PM 41.1875 -91.2939 257° West 400 460 38,000  Level Chicago Center
Thu 02:30:56 PM 41.1564 -91.4650 256° West 398 458 38,000  Level Chicago Center
Thu 02:31:58 PM 41.1306 -91.6094 257° West 402 463 38,000  Level Chicago Center
Thu 02:33:00 PM 41.1036 -91.7533 256° West 403 464 38,000  Level Chicago Center
Thu 02:34:02 PM 41.0772 -91.8989 257° West 407 468 38,000  Level Chicago Center
Thu 02:35:04 PM 41.0511 -92.0425 256° West 406 467 38,000  Level Chicago Center
Thu 02:36:06 PM 41.0186 -92.2172 256° West 410 472 38,000  Level Chicago Center
Thu 02:37:08 PM 40.9919 -92.3603 256° West 406 467 38,000  Level Chicago Center
Thu 02:38:10 PM 40.9644 -92.5056 256° West 410 472 38,000  Level Chicago Center
Thu 02:39:13 PM 40.9375 -92.6486 256° West 408 470 38,000  Level Chicago Center
Thu 02:40:15 PM 40.9042 -92.8189 256° West 405 466 38,000  Level Chicago Center
Thu 02:40:38 PM 40.8931 -92.8775 256° West 406 467 38,000  Level Minneapolis Center
Thu 02:41:40 PM 40.8656 -93.0208 256° West 407 468 38,000  Level Minneapolis Center
Thu 02:42:42 PM 40.8367 -93.1617 255° West 404 465 38,000  Level Minneapolis Center
Thu 02:43:44 PM 40.8097 -93.3011 256° West 400 460 38,000  Level Minneapolis Center
Thu 02:44:46 PM 40.7811 -93.4414 255° West 399 459 38,000  Level Minneapolis Center
Thu 02:45:48 PM 40.7478 -93.6086 255° West 398 458 38,000  Level Minneapolis Center
Thu 02:46:50 PM 40.7194 -93.7483 255° West 398 458 38,000  Level Minneapolis Center
Thu 02:47:52 PM 40.6919 -93.8883 256° West 398 458 38,000  Level Minneapolis Center
Thu 02:48:54 PM 40.6614 -94.0286 254° West 399 459 38,000  Level Minneapolis Center
Thu 02:49:56 PM 40.6317 -94.1675 254° West 399 459 38,000  Level Minneapolis Center
Thu 02:50:58 PM 40.5986 -94.3347 255° West 399 459 38,000  Level Minneapolis Center
Thu 02:52:11 PM 40.5678 -94.4731 254° West 397 457 38,000  Level Minneapolis Center
Thu 02:53:14 PM 40.5347 -94.6375 255° West 391 450 38,000  Level Minneapolis Center
Thu 02:54:16 PM 40.5058 -94.7756 255° West 389 448 38,000  Level Minneapolis Center
Thu 02:55:18 PM 40.4761 -94.9125 254° West 391 450 38,000  Level Minneapolis Center
Thu 02:56:20 PM 40.4481 -95.0494 255° West 389 448 38,000  Level Minneapolis Center
Thu 02:57:22 PM 40.4183 -95.1828 254° West 383 441 38,000  Level Minneapolis Center
Thu 02:58:23 PM 40.3847 -95.3411 254° West 377 434 38,000  Level Minneapolis Center
Thu 02:59:25 PM 40.3558 -95.4733 254° West 376 433 38,000  Level Minneapolis Center
Thu 03:00:27 PM 40.3275 -95.6047 254° West 375 432 38,000  Level Minneapolis Center
Thu 03:01:29 PM 40.2983 -95.7369 254° West 376 433 38,000  Level Minneapolis Center
Thu 03:02:31 PM 40.2692 -95.8683 254° West 376 433 38,000  Level Minneapolis Center
Thu 03:03:33 PM 40.2400 -95.9989 254° West 374 430 38,000  Level Minneapolis Center
Thu 03:04:35 PM 40.2103 -96.1325 254° West 378 435 38,000  Level Minneapolis Center
Thu 03:05:37 PM 40.1733 -96.2944 253° West 385 443 38,000  Level Minneapolis Center
Thu 03:06:39 PM 40.1425 -96.4300 253° West 388 447 38,000  Level Minneapolis Center
Thu 03:07:41 PM 40.1106 -96.5683 253° West 393 452 38,000  Level Minneapolis Center
Thu 03:08:43 PM 40.0789 -96.7050 253° West 394 453 38,000  Level Minneapolis Center
Thu 03:09:45 PM 40.0464 -96.8453 253° West 399 459 38,000  Level Minneapolis Center
Thu 03:10:46 PM 40.0200 -96.9572 253° West 402 463 38,000  Level Minneapolis Center
Thu 03:11:48 PM 39.9811 -97.1289 254° West 409 471 38,000  Level Minneapolis Center
Thu 03:12:50 PM 39.9386 -97.3011 252° West 415 478 38,000  Level Minneapolis Center
Thu 03:13:52 PM 39.9072 -97.4347 253° West 416 479 38,000  Level Minneapolis Center
Thu 03:14:54 PM 39.8731 -97.5786 253° West 415 478 38,000  Level Minneapolis Center
Thu 03:15:56 PM 39.8389 -97.7214 253° West 413 475 38,000  Level Minneapolis Center
Thu 03:16:57 PM 39.8106 -97.8353 252° West 413 475 38,000  Level Minneapolis Center
Thu 03:17:59 PM 39.7622 -98.0350 253° West 413 475 38,000  Level Minneapolis Center
Thu 03:19:01 PM 39.7275 -98.1781 253° West 414 476 38,000  Level Minneapolis Center
Thu 03:20:03 PM 39.6917 -98.3192 252° West 412 474 38,000  Level Minneapolis Center
Thu 03:21:05 PM 39.6569 -98.4600 252° West 410 472 38,000  Level Minneapolis Center
Thu 03:22:07 PM 39.6219 -98.6000 252° West 409 471 38,000  Level Minneapolis Center
Thu 03:22:59 PM 39.5931 -98.7136 252° West 408 470 38,000  Level Denver Center
Thu 03:24:01 PM 39.5511 -98.8800 252° West 405 466 38,000  Level Denver Center
Thu 03:25:02 PM 39.5161 -99.0197 252° West 407 468 38,000  Level Denver Center
Thu 03:26:04 PM 39.4803 -99.1592 252° West 406 467 38,000  Level Denver Center
Thu 03:27:06 PM 39.4403 -99.3111 251° West 409 471 38,000  Level Denver Center
Thu 03:28:20 PM 39.4000 -99.4647 251° West 403 464 38,000  Level Denver Center
Thu 03:29:22 PM 39.3606 -99.6178 252° West 403 464 38,000  Level Denver Center
Thu 03:30:24 PM 39.3264 -99.7492 251° West 403 464 38,000  Level Denver Center
Thu 03:31:25 PM 39.2861 -99.9008 251° West 400 460 38,000  Level Denver Center
Thu 03:32:27 PM 39.2517 -100.0317 251° West 401 461 38,000  Level Denver Center
Thu 03:33:29 PM 39.2164 -100.1608 251° West 400 460 38,000  Level Denver Center
Thu 03:34:31 PM 39.1769 -100.3131 252° West 400 460 38,000  Level Denver Center
Thu 03:35:32 PM 39.1411 -100.4428 250° West 402 463 38,000  Level Denver Center
Thu 03:36:34 PM 39.0992 -100.5944 250° West 402 463 38,000  Level Denver Center
Thu 03:37:36 PM 39.0642 -100.7253 251° West 403 464 38,000  Level Denver Center
Thu 03:38:38 PM 39.0214 -100.8778 250° West 405 466 38,000  Level Denver Center
Thu 03:39:40 PM 38.9883 -101.0025 251° West 414 476 38,000  Level Denver Center
Thu 03:40:41 PM 38.9456 -101.1531 250° West 403 464 38,000  Level Denver Center
Thu 03:41:43 PM 38.9094 -101.2819 250° West 402 463 38,000  Level Denver Center
Thu 03:42:45 PM 38.8675 -101.4328 250° West 403 464 38,000  Level Denver Center
Thu 03:43:47 PM 38.8306 -101.5639 250° West 407 468 38,000  Level Denver Center
Thu 03:44:48 PM 38.7867 -101.7164 250° West 410 472 38,000  Level Denver Center
Thu 03:45:50 PM 38.7494 -101.8494 250° West 413 475 38,000  Level Denver Center
Thu 03:46:52 PM 38.7042 -102.0058 250° West 421 484 38,000  Level Denver Center
Thu 03:47:54 PM 38.6661 -102.1392 250° West 419 482 38,000  Level Denver Center
Thu 03:48:56 PM 38.6211 -102.2956 250° West 422 486 38,000  Level Denver Center
Thu 03:49:58 PM 38.5828 -102.4283 250° West 418 481 38,000  Level Denver Center
Thu 03:50:59 PM 38.5422 -102.5608 249° West 419 482 38,000  Level Denver Center
Thu 03:52:01 PM 38.4972 -102.7167 250° West 419 482 38,000  Level Denver Center
Thu 03:53:03 PM 38.4581 -102.8503 250° West 420 483 38,000  Level Denver Center
Thu 03:54:05 PM 38.4111 -103.0064 249° West 424 488 38,000  Level Denver Center
Thu 03:55:07 PM 38.3717 -103.1403 249° West 422 486 38,000  Level Denver Center
Thu 03:56:09 PM 38.3244 -103.2969 249° West 424 488 38,000  Level Denver Center
Thu 03:57:11 PM 38.2833 -103.4356 249° West 427 491 38,000  Level Denver Center
Thu 03:58:13 PM 38.2350 -103.5928 249° West 428 493 38,000  Level Denver Center
Thu 03:59:16 PM 38.1933 -103.7283 249° West 430 495 38,000  Level Denver Center
Thu 04:00:18 PM 38.1450 -103.8878 249° West 434 499 38,000  Level Denver Center
Thu 04:01:20 PM 38.1033 -104.0242 249° West 435 501 38,000  Level Denver Center
Thu 04:02:22 PM 38.0531 -104.1800 248° West 428 493 38,000  Level Denver Center
Thu 04:03:24 PM 38.0128 -104.3122 249° West 424 488 38,000  Level Denver Center
Thu 04:04:26 PM 37.9644 -104.4664 248° West 423 487 38,000  Level Denver Center
Thu 04:05:28 PM 37.9228 -104.5994 248° West 425 489 38,000  Level Denver Center
Thu 04:06:30 PM 37.8736 -104.7536 248° West 425 489 38,000  Level Denver Center
Thu 04:07:32 PM 37.8322 -104.8853 248° West 424 488 38,000  Level Denver Center
Thu 04:08:34 PM 37.7822 -105.0400 248° West 425 489 38,000  Level Denver Center
Thu 04:09:36 PM 37.7400 -105.1700 248° West 420 483 38,000  Level Denver Center
Thu 04:10:38 PM 37.6914 -105.3211 248° West 418 481 38,000  Level Denver Center
Thu 04:11:40 PM 37.6481 -105.4508 247° West 420 483 38,000  Level Denver Center
Thu 04:12:42 PM 37.6072 -105.5808 248° West 418 481 38,000  Level Denver Center
Thu 04:13:44 PM 37.5564 -105.7344 247° West 424 488 38,000  Level Denver Center
Thu 04:14:46 PM 37.5103 -105.8778 248° West 419 482 38,000  Level Denver Center
Thu 04:15:48 PM 37.4658 -106.0092 247° West 425 489 38,000  Level Denver Center
Thu 04:16:50 PM 37.4150 -106.1636 248° West 427 491 38,000  Level Denver Center
Thu 04:17:52 PM 37.3694 -106.2933 246° West 424 488 38,000  Level Denver Center
Thu 04:18:54 PM 37.3192 -106.4444 247° West 422 486 38,000  Level Denver Center
Thu 04:19:55 PM 37.2767 -106.5736 248° West 419 482 38,000  Level Denver Center
Thu 04:20:57 PM 37.2258 -106.7233 247° West 418 481 38,000  Level Denver Center
Thu 04:21:59 PM 37.1831 -106.8514 247° West 416 479 38,000  Level Denver Center
Thu 04:23:01 PM 37.1383 -106.9792 246° West 418 481 38,000  Level Denver Center
Thu 04:24:03 PM 37.0875 -107.1292 247° West 419 482 38,000  Level Denver Center
Thu 04:25:05 PM 37.0439 -107.2553 247° West 413 475 38,000  Level Denver Center
Thu 04:26:07 PM 36.9950 -107.3972 247° West 400 460 38,000  Level Denver Center
Thu 04:27:09 PM 36.9517 -107.5192 246° West 400 460 38,000  Level Denver Center
Thu 04:28:11 PM 36.9014 -107.6633 246° West 404 465 38,000  Level Denver Center
Thu 04:29:13 PM 36.8589 -107.7878 247° West 406 467 38,000  Level Denver Center
Thu 04:30:15 PM 36.8067 -107.9333 246° West 411 473 38,000  Level Denver Center
Thu 04:31:16 PM 36.7614 -108.0581 246° West 412 474 38,000  Level Denver Center
Thu 04:32:18 PM 36.7039 -108.2033 244° Southwest 418 481 38,000  Level Denver Center
Thu 04:33:20 PM 36.6519 -108.3267 242° Southwest 420 483 38,000  Level Denver Center
Thu 04:34:22 PM 36.5992 -108.4475 241° Southwest 418 481 38,000  Level Denver Center
Thu 04:35:24 PM 36.5389 -108.5911 242° Southwest 419 482 38,000  Level Denver Center
Thu 04:36:26 PM 36.4864 -108.7122 242° Southwest 418 481 38,000  Level Denver Center
Thu 04:37:28 PM 36.4261 -108.8536 242° Southwest 418 481 38,000  Level Denver Center
Thu 04:38:30 PM 36.3739 -108.9722 241° Southwest 414 476 38,000  Level Denver Center
Thu 04:39:31 PM 36.3133 -109.1086 241° Southwest 409 471 38,000  Level Denver Center
Thu 04:41:00 PM 36.2315 -109.2709 241° Southwest  Level FlightAware Approximate
Thu 04:44:45 PM 36.0367 -109.7381 241° Southwest 391 450 38,000  Level Albuquerque Center
Thu 04:45:43 PM 35.9856 -109.8528 244° Southwest 395 455 38,000  Level Denver Center
Thu 04:46:00 PM 35.9729 -109.8986 244° Southwest  Level Estimated
Thu 04:46:45 PM 35.9333 -109.9667 241° Southwest 398 458 38,000  Level Denver Center
Thu 04:47:47 PM 35.8733 -110.0997 241° Southwest 398 458 38,000  Level Denver Center
Thu 04:48:00 PM 35.8584 -110.1029 241° Southwest  Level FlightAware Approximate
Thu 04:48:53 PM 35.8142 -110.2333 241° Southwest 398 458 38,000  Level Albuquerque Center
Thu 04:49:00 PM 35.8046 -110.2211 241° Southwest  Level FlightAware Approximate
Thu 04:49:55 PM 35.7631 -110.3469 241° Southwest 398 458 38,000  Level Albuquerque Center
Thu 04:51:44 PM 35.6608 -110.5733 241° Southwest 401 461 38,000  Level Los Angeles Center
Thu 04:51:59 PM 35.6544 -110.5975 252° West 400 460 38,000  Level Albuquerque Center
Thu 04:53:00 PM 35.6304 -110.7479 244° Southwest  Level Estimated
Thu 04:53:01 PM 35.6139 -110.7194 248° West 401 461 38,000  Level Albuquerque Center
Thu 04:54:03 PM 35.5650 -110.8597 247° West 401 461 38,000  Level Albuquerque Center
Thu 04:55:05 PM 35.5231 -110.9797 247° West 400 460 38,000  Level Albuquerque Center
Thu 04:56:07 PM 35.4703 -111.1183 245° Southwest 400 460 38,000  Level Albuquerque Center
Thu 04:57:08 PM 35.4281 -111.2381 247° West 400 460 38,000  Level Albuquerque Center
Thu 04:58:10 PM 35.3769 -111.3761 246° West 399 459 38,000  Level Albuquerque Center
Thu 04:59:12 PM 35.3317 -111.5008 246° West 401 461 38,000  Level Albuquerque Center
Thu 05:00:14 PM 35.2847 -111.6253 245° Southwest 402 463 38,000  Level Albuquerque Center
Thu 05:01:16 PM 35.2394 -111.7492 246° West 402 463 38,000  Level Albuquerque Center
Thu 05:02:18 PM 35.1936 -111.8731 246° West 400 460 38,000  Level Albuquerque Center
Thu 05:03:20 PM 35.1475 -111.9953 245° Southwest 399 459 38,000  Level Albuquerque Center
Thu 05:04:22 PM 35.0894 -112.1431 244° Southwest 401 461 38,000  Level Albuquerque Center
Thu 05:05:24 PM 35.0436 -112.2681 246° West 403 464 38,000  Level Albuquerque Center
Thu 05:06:26 PM 34.9961 -112.3925 245° Southwest 405 466 38,000  Level Albuquerque Center
Thu 05:07:28 PM 34.9497 -112.5181 246° West 406 467 38,000 -293 Level Albuquerque Center
Thu 05:08:29 PM 34.9017 -112.6431 245° Southwest 406 467 37,400 -732 Descending Albuquerque Center
Thu 05:09:31 PM 34.8533 -112.7689 245° Southwest 408 470 36,500 -919 Descending Albuquerque Center
Thu 05:10:33 PM 34.8053 -112.8964 245° Southwest 411 473 35,500 -919 Descending Albuquerque Center
Thu 05:11:35 PM 34.7561 -113.0236 245° Southwest 413 475 34,600 -726 Descending Albuquerque Center
Thu 05:12:37 PM 34.6975 -113.1772 245° Southwest 417 480 34,000 -290 Descending Albuquerque Center
Thu 05:13:39 PM 34.6486 -113.3019 245° Southwest 412 474 34,000  Level Albuquerque Center
Thu 05:14:41 PM 34.5992 -113.4275 244° Southwest 413 475 34,000  Level Albuquerque Center
Thu 05:15:43 PM 34.5503 -113.5528 245° Southwest 413 475 34,000  Level Albuquerque Center
Thu 05:16:44 PM 34.4972 -113.6875 244° Southwest 411 473 34,000  Level Albuquerque Center
Thu 05:17:46 PM 34.4481 -113.8125 245° Southwest 411 473 34,000  Level Albuquerque Center
Thu 05:18:48 PM 34.3989 -113.9369 244° Southwest 411 473 34,000  Level Albuquerque Center
Thu 05:19:50 PM 34.3503 -114.0606 245° Southwest 409 471 34,000 -290 Level Albuquerque Center
Thu 05:20:52 PM 34.2906 -114.2111 244° Southwest 410 472 33,400 -823 Descending Albuquerque Center
Thu 05:21:54 PM 34.2406 -114.3364 244° Southwest 412 474 32,300 -1,043 Descending Albuquerque Center
Thu 05:22:47 PM 34.2006 -114.4372 244° Southwest 404 465 31,400 -991 Descending Los Angeles Center
Thu 05:23:49 PM 34.1525 -114.5569 244° Southwest 397 457 30,400 -677 Descending Los Angeles Center
Thu 05:24:51 PM 34.1047 -114.6758 244° Southwest 395 455 30,000 -194 Descending Los Angeles Center
Thu 05:25:53 PM 34.0539 -114.7933 242° Southwest 395 455 30,000  Level Los Angeles Center
Thu 05:26:55 PM 33.9908 -114.9328 241° Southwest 395 455 30,000  Level Los Angeles Center
Thu 05:27:57 PM 33.9397 -115.0500 242° Southwest 396 456 30,000  Level Los Angeles Center
Thu 05:29:00 PM 33.8875 -115.1672 242° Southwest 399 459 30,000  Level Los Angeles Center
Thu 05:30:02 PM 33.8344 -115.2850 242° Southwest 399 459 30,000  Level Los Angeles Center
Thu 05:31:04 PM 33.7828 -115.4022 242° Southwest 399 459 30,000  Level Los Angeles Center
Thu 05:32:06 PM 33.7289 -115.5206 241° Southwest 404 465 30,000 -387 Level Los Angeles Center
Thu 05:33:08 PM 33.6669 -115.6592 242° Southwest 394 453 29,200 -1,306 Descending Los Angeles Center
Thu 05:34:10 PM 33.6153 -115.7722 241° Southwest 388 447 27,300 -1,935 Descending Los Angeles Center
Thu 05:35:12 PM 33.5564 -115.8747 235° Southwest 376 433 25,200 -1,790 Descending Los Angeles Center
Thu 05:36:14 PM 33.4967 -115.9764 235° Southwest 376 433 23,600 -1,258 Descending Los Angeles Center
Thu 05:37:16 PM 33.4400 -116.0761 236° Southwest 367 422 22,600 -1,113 Descending Los Angeles Center
Thu 05:38:18 PM 33.3714 -116.1933 235° Southwest 362 417 21,300 -1,728 Descending Los Angeles Center
Thu 05:39:21 PM 33.3008 -116.2650 220° Southwest 357 411 19,000 -2,160 Descending Los Angeles Center
Thu 05:40:23 PM 33.2064 -116.2800 188° South 346 398 16,800 -1,984 Descending Los Angeles Center
Thu 05:41:25 PM 33.1156 -116.2953 188° South 337 388 14,900 -1,645 Descending Los Angeles Center
Thu 05:42:27 PM 33.0333 -116.3306 200° South 331 381 13,400 -1,161 Descending Los Angeles Center
Thu 05:43:29 PM 32.9708 -116.3997 223° Southwest 317 365 12,500 -871 Descending Los Angeles Center
Thu 05:44:31 PM 32.8961 -116.4794 222° Southwest 299 344 11,600 -1,016 Descending Los Angeles Center
Thu 05:45:33 PM 32.8444 -116.5364 223° Southwest 281 323 10,400 -1,113 Descending Los Angeles Center
Thu 05:46:35 PM 32.8083 -116.6086 239° Southwest 260 299 9,300 -1,258 Descending Los Angeles Center
Thu 05:47:37 PM 32.7717 -116.6978 244° Southwest 252 290 7,800 -1,306 Descending Los Angeles Center
Thu 05:48:39 PM 32.7397 -116.7731 243° Southwest 254 292 6,600 -960 Descending Los Angeles Center
Thu 05:49:42 PM 32.7103 -116.8422 243° Southwest 243 280 5,800 -903 Descending Los Angeles Center
Thu 05:50:12 PM 32.7000 -116.8833 253° West 217 250 5,200 -1,067 Descending Southern California TRACON
Thu 05:51:12 PM 32.6667 -116.9500 239° Southwest 209 241 4,200 -1,050 Descending Southern California TRACON
Thu 05:52:12 PM 32.6833 -117.0000 292° West 201 231 3,100 -1,050 Descending Southern California TRACON
Thu 05:53:12 PM 32.7000 -117.0667 287° West 185 213 2,100 -950 Descending Southern California TRACON
Thu 05:54:12 PM 32.7167 -117.1167 292° West 159 183 1,200 -900 Descending Southern California TRACON
Thu 05:54:52 PM 32.7228 -117.1461 284° West 158 182 600 -900 Descending Los Angeles Center
Thu 05:57:00 PM 32.7333 -117.1833 281° West  Level FlightAware Approximate
Thu 06:04:00 PM 32.7336 -117.1897 281° West  Level Estimated

Login

Don't have an account? Register now (free) for customized features, flight alerts, and more!